sensor_id;sensor_type;location;lat;lon;timestamp;pressure;altitude;pressure_sealevel;temperature;humidity
12676;BME280;63820;65.654;21.944;2023-04-28T00:00:12;101101.97;;;1.91;100.00
12676;BME280;63820;65.654;21.944;2023-04-28T00:02:56;101099.41;;;1.95;100.00
12676;BME280;63820;65.654;21.944;2023-04-28T00:05:40;101102.84;;;1.98;100.00
12676;BME280;63820;65.654;21.944;2023-04-28T00:08:24;101099.41;;;1.99;100.00
12676;BME280;63820;65.654;21.944;2023-04-28T00:11:10;101107.94;;;1.91;100.00
12676;BME280;63820;65.654;21.944;2023-04-28T00:13:54;101102.81;;;1.91;100.00
12676;BME280;63820;65.654;21.944;2023-04-28T00:16:39;101094.28;;;1.92;100.00
12676;BME280;63820;65.654;21.944;2023-04-28T00:19:22;101087.44;;;1.96;100.00
12676;BME280;63820;65.654;21.944;2023-04-28T00:22:06;101084.88;;;1.94;100.00
12676;BME280;63820;65.654;21.944;2023-04-28T00:24:51;101083.16;;;1.93;100.00
12676;BME280;63820;65.654;21.944;2023-04-28T00:27:35;101093.41;;;1.92;100.00
12676;BME280;63820;65.654;21.944;2023-04-28T00:30:19;101120.78;;;1.93;100.00
12676;BME280;63820;65.654;21.944;2023-04-28T00:33:04;101117.34;;;1.92;100.00
12676;BME280;63820;65.654;21.944;2023-04-28T00:35:48;101106.22;;;1.90;100.00
12676;BME280;63820;65.654;21.944;2023-04-28T00:38:33;101112.25;;;1.99;100.00
12676;BME280;63820;65.654;21.944;2023-04-28T00:41:17;101118.22;;;2.01;100.00
12676;BME280;63820;65.654;21.944;2023-04-28T00:44:01;101125.06;;;1.92;100.00
12676;BME280;63820;65.654;21.944;2023-04-28T00:46:45;101117.34;;;1.89;100.00
12676;BME280;63820;65.654;21.944;2023-04-28T00:49:30;101113.06;;;1.85;100.00
12676;BME280;63820;65.654;21.944;2023-04-28T00:52:14;101118.19;;;1.85;100.00
12676;BME280;63820;65.654;21.944;2023-04-28T00:54:59;101131.00;;;1.82;100.00
12676;BME280;63820;65.654;21.944;2023-04-28T00:57:44;101131.00;;;1.82;100.00
12676;BME280;63820;65.654;21.944;2023-04-28T01:00:28;101129.28;;;1.81;100.00
12676;BME280;63820;65.654;21.944;2023-04-28T01:03:12;101137.84;;;1.80;100.00
12676;BME280;63820;65.654;21.944;2023-04-28T01:05:57;101147.25;;;1.78;100.00
12676;BME280;63820;65.654;21.944;2023-04-28T01:08:42;101138.69;;;1.76;100.00
12676;BME280;63820;65.654;21.944;2023-04-28T01:11:26;101150.66;;;1.77;100.00
12676;BME280;63820;65.654;21.944;2023-04-28T01:14:10;101107.91;;;1.79;100.00
12676;BME280;63820;65.654;21.944;2023-04-28T01:16:55;101095.09;;;1.85;100.00
12676;BME280;63820;65.654;21.944;2023-04-28T01:19:39;101095.94;;;1.81;100.00
12676;BME280;63820;65.654;21.944;2023-04-28T01:22:24;101091.66;;;1.77;100.00
12676;BME280;63820;65.654;21.944;2023-04-28T01:25:08;101098.50;;;1.72;100.00
12676;BME280;63820;65.654;21.944;2023-04-28T01:27:52;101100.16;;;1.59;100.00
12676;BME280;63820;65.654;21.944;2023-04-28T01:30:36;101095.88;;;1.54;100.00
12676;BME280;63820;65.654;21.944;2023-04-28T01:33:21;101113.78;;;1.49;100.00
12676;BME280;63820;65.654;21.944;2023-04-28T01:36:05;101115.53;;;1.55;100.00
12676;BME280;63820;65.654;21.944;2023-04-28T01:38:49;101107.78;;;1.43;100.00
12676;BME280;63820;65.654;21.944;2023-04-28T01:41:34;101106.06;;;1.42;100.00
12676;BME280;63820;65.654;21.944;2023-04-28T01:44:19;101108.63;;;1.40;100.00
12676;BME280;63820;65.654;21.944;2023-04-28T01:47:03;101111.19;;;1.42;100.00
12676;BME280;63820;65.654;21.944;2023-04-28T01:49:48;101106.88;;;1.31;100.00
12676;BME280;63820;65.654;21.944;2023-04-28T01:52:33;101114.56;;;1.31;100.00
12676;BME280;63820;65.654;21.944;2023-04-28T01:55:17;101108.56;;;1.28;100.00
12676;BME280;63820;65.654;21.944;2023-04-28T01:58:01;101089.78;;;1.27;100.00
12676;BME280;63820;65.654;21.944;2023-04-28T02:00:45;101106.03;;;1.33;100.00
12676;BME280;63820;65.654;21.944;2023-04-28T02:03:29;101097.47;;;1.29;100.00
12676;BME280;63820;65.654;21.944;2023-04-28T02:06:14;101100.03;;;1.32;100.00
12676;BME280;63820;65.654;21.944;2023-04-28T02:08:58;101095.78;;;1.36;100.00
12676;BME280;63820;65.654;21.944;2023-04-28T02:11:42;101089.78;;;1.32;100.00
12676;BME280;63820;65.654;21.944;2023-04-28T02:14:26;101100.84;;;1.23;100.00
12676;BME280;63820;65.654;21.944;2023-04-28T02:17:10;101081.16;;;1.15;100.00
12676;BME280;63820;65.654;21.944;2023-04-28T02:19:55;101078.63;;;1.16;100.00
12676;BME280;63820;65.654;21.944;2023-04-28T02:22:40;101082.88;;;1.16;100.00
12676;BME280;63820;65.654;21.944;2023-04-28T02:25:24;101082.88;;;1.16;100.00
12676;BME280;63820;65.654;21.944;2023-04-28T02:28:08;101082.00;;;1.09;100.00
12676;BME280;63820;65.654;21.944;2023-04-28T02:30:52;101081.13;;;1.03;100.00
12676;BME280;63820;65.654;21.944;2023-04-28T02:33:37;101084.53;;;1.00;100.00
12676;BME280;63820;65.654;21.944;2023-04-28T02:36:21;101067.47;;;1.07;100.00
12676;BME280;63820;65.654;21.944;2023-04-28T02:39:06;101076.03;;;1.13;100.00
12676;BME280;63820;65.654;21.944;2023-04-28T02:41:50;101081.09;;;1.04;100.00
12676;BME280;63820;65.654;21.944;2023-04-28T02:44:35;101066.59;;;1.05;100.00
12676;BME280;63820;65.654;21.944;2023-04-28T02:47:19;101062.34;;;1.07;100.00
12676;BME280;63820;65.654;21.944;2023-04-28T02:50:04;101076.84;;;1.00;100.00
12676;BME280;63820;65.654;21.944;2023-04-28T02:52:49;101067.44;;;0.99;100.00
12676;BME280;63820;65.654;21.944;2023-04-28T02:55:33;101064.88;;;0.99;100.00
12676;BME280;63820;65.654;21.944;2023-04-28T02:58:17;101074.28;;;0.97;100.00
12676;BME280;63820;65.654;21.944;2023-04-28T03:01:01;101071.72;;;0.97;100.00
12676;BME280;63820;65.654;21.944;2023-04-28T03:03:45;101081.97;;;1.00;100.00
12676;BME280;63820;65.654;21.944;2023-04-28T03:06:29;101097.31;;;0.97;100.00
12676;BME280;63820;65.654;21.944;2023-04-28T03:09:14;101081.97;;;0.98;100.00
12676;BME280;63820;65.654;21.944;2023-04-28T03:11:59;101090.50;;;0.99;100.00
12676;BME280;63820;65.654;21.944;2023-04-28T03:14:43;101094.78;;;0.98;100.00
12676;BME280;63820;65.654;21.944;2023-04-28T03:17:27;101107.56;;;0.94;100.00
12676;BME280;63820;65.654;21.944;2023-04-28T03:20:12;101112.69;;;0.97;100.00
12676;BME280;63820;65.654;21.944;2023-04-28T03:22:56;101103.34;;;1.02;100.00
12676;BME280;63820;65.654;21.944;2023-04-28T03:25:41;101099.91;;;0.98;100.00
12676;BME280;63820;65.654;21.944;2023-04-28T03:28:25;101093.09;;;1.01;100.00
12676;BME280;63820;65.654;21.944;2023-04-28T03:31:09;101092.22;;;0.97;100.00
12676;BME280;63820;65.654;21.944;2023-04-28T03:33:53;101094.81;;;1.03;100.00
12676;BME280;63820;65.654;21.944;2023-04-28T03:36:37;101088.81;;;1.07;100.00
12676;BME280;63820;65.654;21.944;2023-04-28T03:39:21;101080.28;;;1.11;100.00
12676;BME280;63820;65.654;21.944;2023-04-28T03:42:05;101065.81;;;1.16;100.00
12676;BME280;63820;65.654;21.944;2023-04-28T03:44:49;101069.22;;;1.20;100.00
12676;BME280;63820;65.654;21.944;2023-04-28T03:47:33;101067.50;;;1.17;100.00
12676;BME280;63820;65.654;21.944;2023-04-28T03:50:18;101055.53;;;1.15;100.00
12676;BME280;63820;65.654;21.944;2023-04-28T03:53:02;101051.25;;;1.09;100.00
12676;BME280;63820;65.654;21.944;2023-04-28T03:55:47;101064.06;;;1.11;100.00
12676;BME280;63820;65.654;21.944;2023-04-28T03:58:32;101064.91;;;1.08;100.00
12676;BME280;63820;65.654;21.944;2023-04-28T04:01:16;101059.78;;;1.08;100.00
12676;BME280;63820;65.654;21.944;2023-04-28T04:04:00;101055.50;;;1.07;100.00
12676;BME280;63820;65.654;21.944;2023-04-28T04:06:44;101060.63;;;1.07;100.00
12676;BME280;63820;65.654;21.944;2023-04-28T04:09:29;101078.56;;;1.07;100.00
12676;BME280;63820;65.654;21.944;2023-04-28T04:12:13;101074.28;;;1.06;100.00
12676;BME280;63820;65.654;21.944;2023-04-28T04:14:57;101067.50;;;1.16;100.00
12676;BME280;63820;65.654;21.944;2023-04-28T04:17:41;101063.28;;;1.22;100.00
12676;BME280;63820;65.654;21.944;2023-04-28T04:20:25;101060.72;;;1.25;100.00
12676;BME280;63820;65.654;21.944;2023-04-28T04:23:09;101075.25;;;1.26;100.00
12676;BME280;63820;65.654;21.944;2023-04-28T04:25:54;101070.97;;;1.22;100.00
12676;BME280;63820;65.654;21.944;2023-04-28T04:28:39;101070.13;;;1.25;100.00
12676;BME280;63820;65.654;21.944;2023-04-28T04:31:23;101064.97;;;1.23;100.00
12676;BME280;63820;65.654;21.944;2023-04-28T04:34:07;101071.84;;;1.34;100.00
12676;BME280;63820;65.654;21.944;2023-04-28T04:36:51;101068.47;;;1.41;100.00
12676;BME280;63820;65.654;21.944;2023-04-28T04:39:35;101067.63;;;1.46;100.00
12676;BME280;63820;65.654;21.944;2023-04-28T04:42:20;101070.22;;;1.52;100.00
12676;BME280;63820;65.654;21.944;2023-04-28T04:45:04;101075.38;;;1.60;100.00
12676;BME280;63820;65.654;21.944;2023-04-28T04:47:48;101081.34;;;1.62;100.00
12676;BME280;63820;65.654;21.944;2023-04-28T04:50:33;101082.22;;;1.67;100.00
12676;BME280;63820;65.654;21.944;2023-04-28T04:53:17;101092.50;;;1.76;100.00
12676;BME280;63820;65.654;21.944;2023-04-28T04:56:01;101083.13;;;1.80;100.00
12676;BME280;63820;65.654;21.944;2023-04-28T04:58:45;101077.16;;;1.88;100.00
12676;BME280;63820;65.654;21.944;2023-04-28T05:01:29;101073.75;;;1.94;100.00
12676;BME280;63820;65.654;21.944;2023-04-28T05:04:14;101063.50;;;2.02;100.00
12676;BME280;63820;65.654;21.944;2023-04-28T05:06:58;101057.50;;;2.07;100.00
12676;BME280;63820;65.654;21.944;2023-04-28T05:09:42;101054.91;;;2.09;100.00
12676;BME280;63820;65.654;21.944;2023-04-28T05:12:26;101054.91;;;2.12;100.00
12676;BME280;63820;65.654;21.944;2023-04-28T05:15:10;101048.94;;;2.17;100.00
12676;BME280;63820;65.654;21.944;2023-04-28T05:17:55;101042.09;;;2.25;100.00
12676;BME280;63820;65.654;21.944;2023-04-28T05:20:41;101042.09;;;2.28;100.00
12676;BME280;63820;65.654;21.944;2023-04-28T05:23:25;101052.34;;;2.30;100.00
12676;BME280;63820;65.654;21.944;2023-04-28T05:26:09;101048.94;;;2.33;100.00
12676;BME280;63820;65.654;21.944;2023-04-28T05:28:53;101052.34;;;2.33;100.00
12676;BME280;63820;65.654;21.944;2023-04-28T05:31:37;101057.50;;;2.36;100.00
12676;BME280;63820;65.654;21.944;2023-04-28T05:34:21;101062.63;;;2.33;100.00
12676;BME280;63820;65.654;21.944;2023-04-28T05:37:05;101056.63;;;2.28;100.00
12676;BME280;63820;65.654;21.944;2023-04-28T05:39:49;101071.19;;;2.30;100.00
12676;BME280;63820;65.654;21.944;2023-04-28T05:42:33;101062.63;;;2.33;100.00
12676;BME280;63820;65.654;21.944;2023-04-28T05:45:17;101064.34;;;2.37;100.00
12676;BME280;63820;65.654;21.944;2023-04-28T05:48:01;101060.06;;;2.41;100.00
12676;BME280;63820;65.654;21.944;2023-04-28T05:50:46;101064.34;;;2.46;100.00
12676;BME280;63820;65.654;21.944;2023-04-28T05:53:30;101059.19;;;2.52;100.00
12676;BME280;63820;65.654;21.944;2023-04-28T05:56:15;101066.03;;;2.66;100.00
12676;BME280;63820;65.654;21.944;2023-04-28T05:58:59;101070.28;;;2.79;100.00
12676;BME280;63820;65.654;21.944;2023-04-28T06:01:47;101062.56;;;2.89;100.00
12676;BME280;63820;65.654;21.944;2023-04-28T06:04:32;101068.53;;;2.94;100.00
12676;BME280;63820;65.654;21.944;2023-04-28T06:07:16;101061.69;;;3.00;100.00
12676;BME280;63820;65.654;21.944;2023-04-28T06:10:00;101061.66;;;3.04;100.00
12676;BME280;63820;65.654;21.944;2023-04-28T06:12:44;101070.16;;;3.14;100.00
12676;BME280;63820;65.654;21.944;2023-04-28T06:15:28;101070.97;;;3.26;100.00
12676;BME280;63820;65.654;21.944;2023-04-28T06:18:13;101072.63;;;3.46;100.00
12676;BME280;63820;65.654;21.944;2023-04-28T06:20:59;101074.28;;;3.57;100.00
12676;BME280;63820;65.654;21.944;2023-04-28T06:23:42;101074.22;;;3.70;100.00
12676;BME280;63820;65.654;21.944;2023-04-28T06:26:27;101048.56;;;3.57;100.00
12676;BME280;63820;65.654;21.944;2023-04-28T06:29:11;101079.31;;;3.79;100.00
12676;BME280;63820;65.654;21.944;2023-04-28T06:31:55;101073.19;;;3.97;100.00
12676;BME280;63820;65.654;21.944;2023-04-28T06:34:41;101062.84;;;4.07;100.00
12676;BME280;63820;65.654;21.944;2023-04-28T06:37:25;101060.13;;;4.21;100.00
12676;BME280;63820;65.654;21.944;2023-04-28T06:40:10;101071.13;;;4.40;100.00
12676;BME280;63820;65.654;21.944;2023-04-28T06:42:54;101069.34;;;4.46;100.00
12676;BME280;63820;65.654;21.944;2023-04-28T06:45:39;101070.09;;;4.60;100.00
12676;BME280;63820;65.654;21.944;2023-04-28T06:48:23;101077.78;;;4.67;100.00
12676;BME280;63820;65.654;21.944;2023-04-28T06:51:09;101086.31;;;4.72;100.00
12676;BME280;63820;65.654;21.944;2023-04-28T06:53:53;101074.28;;;4.71;100.00
12676;BME280;63820;65.654;21.944;2023-04-28T06:56:37;101086.28;;;4.75;100.00
12676;BME280;63820;65.654;21.944;2023-04-28T06:59:21;101086.38;;;4.66;100.00
12676;BME280;63820;65.654;21.944;2023-04-28T07:02:05;101091.38;;;4.81;100.00
12676;BME280;63820;65.654;21.944;2023-04-28T07:04:49;101089.63;;;4.83;100.00
12676;BME280;63820;65.654;21.944;2023-04-28T07:07:34;101081.75;;;5.00;100.00
12676;BME280;63820;65.654;21.944;2023-04-28T07:10:19;101091.13;;;5.05;100.00
12676;BME280;63820;65.654;21.944;2023-04-28T07:13:03;101066.25;;;5.00;100.00
12676;BME280;63820;65.654;21.944;2023-04-28T07:15:47;101089.97;;;5.29;100.00
12676;BME280;63820;65.654;21.944;2023-04-28T07:18:31;101099.22;;;5.47;100.00
12676;BME280;63820;65.654;21.944;2023-04-28T07:21:15;101097.31;;;5.61;100.00
12676;BME280;63820;65.654;21.944;2023-04-28T07:23:59;101096.16;;;5.85;100.00
12676;BME280;63820;65.654;21.944;2023-04-28T07:26:43;101084.91;;;5.90;100.00
12676;BME280;63820;65.654;21.944;2023-04-28T07:29:28;101089.50;;;6.27;100.00
12676;BME280;63820;65.654;21.944;2023-04-28T07:32:16;101079.47;;;6.61;100.00
12676;BME280;63820;65.654;21.944;2023-04-28T07:35:01;101078.78;;;6.50;100.00
12676;BME280;63820;65.654;21.944;2023-04-28T07:37:45;101081.69;;;6.30;100.00
12676;BME280;63820;65.654;21.944;2023-04-28T07:40:29;101086.00;;;6.31;100.00
12676;BME280;63820;65.654;21.944;2023-04-28T07:43:13;101081.66;;;6.84;100.00
12676;BME280;63820;65.654;21.944;2023-04-28T07:45:58;101075.03;;;7.96;100.00
12676;BME280;63820;65.654;21.944;2023-04-28T07:48:42;101081.72;;;8.41;100.00
12676;BME280;63820;65.654;21.944;2023-04-28T07:51:26;101080.06;;;8.73;100.00
12676;BME280;63820;65.654;21.944;2023-04-28T07:54:11;101089.03;;;9.25;100.00
12676;BME280;63820;65.654;21.944;2023-04-28T07:56:56;101082.94;;;8.95;100.00
12676;BME280;63820;65.654;21.944;2023-04-28T07:59:43;101087.44;;;8.88;100.00
12676;BME280;63820;65.654;21.944;2023-04-28T08:02:27;101084.00;;;8.53;100.00
12676;BME280;63820;65.654;21.944;2023-04-28T08:05:12;101083.13;;;8.55;100.00
12676;BME280;63820;65.654;21.944;2023-04-28T08:07:56;101073.75;;;8.49;100.00
12676;BME280;63820;65.654;21.944;2023-04-28T08:10:40;101067.94;;;8.04;100.00
12676;BME280;63820;65.654;21.944;2023-04-28T08:13:27;101070.22;;;8.51;100.00
12676;BME280;63820;65.654;21.944;2023-04-28T08:16:11;101073.81;;;8.80;100.00
12676;BME280;63820;65.654;21.944;2023-04-28T08:18:56;101072.31;;;9.35;100.00
12676;BME280;63820;65.654;21.944;2023-04-28T08:21:40;101077.69;;;9.29;100.00
12676;BME280;63820;65.654;21.944;2023-04-28T08:24:24;101083.75;;;8.97;100.00
12676;BME280;63820;65.654;21.944;2023-04-28T08:27:08;101092.59;;;8.56;100.00
12676;BME280;63820;65.654;21.944;2023-04-28T08:29:52;101092.38;;;8.29;100.00
12676;BME280;63820;65.654;21.944;2023-04-28T08:32:36;101091.53;;;7.92;100.00
12676;BME280;63820;65.654;21.944;2023-04-28T08:35:21;101097.16;;;7.70;100.00
12676;BME280;63820;65.654;21.944;2023-04-28T08:38:06;101095.38;;;7.74;100.00
12676;BME280;63820;65.654;21.944;2023-04-28T08:40:50;101103.69;;;7.88;100.00
12676;BME280;63820;65.654;21.944;2023-04-28T08:43:35;101097.00;;;9.18;100.00
12676;BME280;63820;65.654;21.944;2023-04-28T08:46:21;101097.91;;;8.85;100.00
12676;BME280;63820;65.654;21.944;2023-04-28T08:49:06;101100.06;;;8.68;100.00
12676;BME280;63820;65.654;21.944;2023-04-28T08:51:58;101093.66;;;8.48;100.00
12676;BME280;63820;65.654;21.944;2023-04-28T08:54:43;101093.50;;;8.19;100.00
12676;BME280;63820;65.654;21.944;2023-04-28T08:57:34;101110.47;;;7.94;100.00
12676;BME280;63820;65.654;21.944;2023-04-28T09:00:21;101097.16;;;8.46;100.00
12676;BME280;63820;65.654;21.944;2023-04-28T09:03:06;101098.13;;;8.05;100.00
12676;BME280;63820;65.654;21.944;2023-04-28T09:05:51;101098.03;;;9.72;100.00
12676;BME280;63820;65.654;21.944;2023-04-28T09:08:35;101095.06;;;10.66;99.30
12676;BME280;63820;65.654;21.944;2023-04-28T09:11:19;101098.25;;;12.16;83.16
12676;BME280;63820;65.654;21.944;2023-04-28T09:14:12;101095.97;;;12.91;74.18
12676;BME280;63820;65.654;21.944;2023-04-28T09:16:56;101101.84;;;12.96;72.13
12676;BME280;63820;65.654;21.944;2023-04-28T09:19:40;101108.53;;;11.74;72.42
12676;BME280;63820;65.654;21.944;2023-04-28T09:22:29;101095.56;;;11.72;77.26
12676;BME280;63820;65.654;21.944;2023-04-28T09:25:13;101104.63;;;11.62;77.49
12676;BME280;63820;65.654;21.944;2023-04-28T09:27:57;101103.41;;;10.49;84.00
12676;BME280;63820;65.654;21.944;2023-04-28T09:30:41;101109.03;;;10.09;90.32
12676;BME280;63820;65.654;21.944;2023-04-28T09:33:26;101107.81;;;9.03;100.00
12676;BME280;63820;65.654;21.944;2023-04-28T09:36:10;101107.34;;;8.88;100.00
12676;BME280;63820;65.654;21.944;2023-04-28T09:38:56;101105.88;;;8.77;100.00
12676;BME280;63820;65.654;21.944;2023-04-28T09:41:42;101109.00;;;8.90;100.00
12676;BME280;63820;65.654;21.944;2023-04-28T09:44:26;101107.16;;;8.61;100.00
12676;BME280;63820;65.654;21.944;2023-04-28T09:47:19;101108.38;;;9.14;100.00
12676;BME280;63820;65.654;21.944;2023-04-28T09:50:07;101110.72;;;9.24;100.00
12676;BME280;63820;65.654;21.944;2023-04-28T09:52:57;101107.31;;;9.22;100.00
12676;BME280;63820;65.654;21.944;2023-04-28T09:55:43;101099.28;;;8.98;100.00
12676;BME280;63820;65.654;21.944;2023-04-28T09:58:29;101100.16;;;8.65;100.00
12676;BME280;63820;65.654;21.944;2023-04-28T10:01:16;101105.56;;;7.81;100.00
12676;BME280;63820;65.654;21.944;2023-04-28T10:04:01;101105.31;;;7.94;100.00
12676;BME280;63820;65.654;21.944;2023-04-28T10:06:47;101101.78;;;7.14;100.00
12676;BME280;63820;65.654;21.944;2023-04-28T10:09:31;101110.28;;;8.03;100.00
12676;BME280;63820;65.654;21.944;2023-04-28T10:12:17;101095.91;;;7.48;100.00
12676;BME280;63820;65.654;21.944;2023-04-28T10:15:01;101105.88;;;7.66;100.00
12676;BME280;63820;65.654;21.944;2023-04-28T10:17:47;101098.88;;;7.71;100.00
12676;BME280;63820;65.654;21.944;2023-04-28T10:20:33;101100.25;;;7.47;100.00
12676;BME280;63820;65.654;21.944;2023-04-28T10:23:29;101104.69;;;7.41;100.00
12676;BME280;63820;65.654;21.944;2023-04-28T10:26:16;101108.97;;;7.83;100.00
12676;BME280;63820;65.654;21.944;2023-04-28T10:29:04;101114.09;;;7.86;100.00
12676;BME280;63820;65.654;21.944;2023-04-28T10:32:19;101111.56;;;7.42;100.00
12676;BME280;63820;65.654;21.944;2023-04-28T10:38:19;101116.00;;;7.78;100.00
12676;BME280;63820;65.654;21.944;2023-04-28T10:41:32;101109.66;;;7.92;100.00
12676;BME280;63820;65.654;21.944;2023-04-28T10:44:42;101104.13;;;8.78;100.00
12676;BME280;63820;65.654;21.944;2023-04-28T10:47:27;101114.50;;;9.12;100.00
12676;BME280;63820;65.654;21.944;2023-04-28T10:50:11;101121.03;;;9.27;100.00
12676;BME280;63820;65.654;21.944;2023-04-28T10:52:56;101126.22;;;9.27;100.00
12676;BME280;63820;65.654;21.944;2023-04-28T10:55:40;101127.63;;;9.37;100.00
12676;BME280;63820;65.654;21.944;2023-04-28T11:04:08;101112.91;;;9.06;100.00
12676;BME280;63820;65.654;21.944;2023-04-28T11:07:09;101120.72;;;8.72;100.00
12676;BME280;63820;65.654;21.944;2023-04-28T11:09:53;101123.81;;;8.52;100.00
12676;BME280;63820;65.654;21.944;2023-04-28T11:16:22;101132.75;;;7.62;100.00
12676;BME280;63820;65.654;21.944;2023-04-28T11:19:08;101131.41;;;6.98;100.00
12676;BME280;63820;65.654;21.944;2023-04-28T11:21:57;101133.25;;;6.39;100.00
12676;BME280;63820;65.654;21.944;2023-04-28T11:24:55;101127.19;;;6.40;100.00
12676;BME280;63820;65.654;21.944;2023-04-28T11:27:40;101128.84;;;6.44;100.00
12676;BME280;63820;65.654;21.944;2023-04-28T11:30:24;101135.63;;;6.51;100.00
12676;BME280;63820;65.654;21.944;2023-04-28T11:33:11;101132.41;;;6.37;100.00
12676;BME280;63820;65.654;21.944;2023-04-28T11:35:55;101128.06;;;6.41;100.00
12676;BME280;63820;65.654;21.944;2023-04-28T11:38:43;101136.13;;;6.21;100.00
12676;BME280;63820;65.654;21.944;2023-04-28T11:41:27;101113.84;;;6.14;100.00
12676;BME280;63820;65.654;21.944;2023-04-28T11:44:12;101136.72;;;6.38;100.00
12676;BME280;63820;65.654;21.944;2023-04-28T11:46:58;101133.78;;;6.60;100.00
12676;BME280;63820;65.654;21.944;2023-04-28T11:49:45;101130.31;;;6.61;100.00
12676;BME280;63820;65.654;21.944;2023-04-28T11:52:29;101123.41;;;6.07;100.00
12676;BME280;63820;65.654;21.944;2023-04-28T11:55:16;101129.88;;;6.34;100.00
12676;BME280;63820;65.654;21.944;2023-04-28T11:58:19;101132.44;;;6.36;100.00
12676;BME280;63820;65.654;21.944;2023-04-28T12:01:14;101137.78;;;6.25;100.00
12676;BME280;63820;65.654;21.944;2023-04-28T12:03:58;101135.09;;;6.31;100.00
12676;BME280;63820;65.654;21.944;2023-04-28T12:06:42;101133.31;;;6.35;100.00
12676;BME280;63820;65.654;21.944;2023-04-28T12:09:26;101132.09;;;6.02;100.00
12676;BME280;63820;65.654;21.944;2023-04-28T12:12:13;101135.78;;;5.82;100.00
12676;BME280;63820;65.654;21.944;2023-04-28T12:15:00;101139.78;;;6.08;100.00
12676;BME280;63820;65.654;21.944;2023-04-28T12:17:44;101136.88;;;5.63;100.00
12676;BME280;63820;65.654;21.944;2023-04-28T12:20:34;101138.56;;;5.67;100.00
12676;BME280;63820;65.654;21.944;2023-04-28T12:23:32;101128.81;;;5.87;100.00
12676;BME280;63820;65.654;21.944;2023-04-28T12:26:23;101135.03;;;6.36;100.00
12676;BME280;63820;65.654;21.944;2023-04-28T12:29:08;101136.00;;;6.82;100.00
12676;BME280;63820;65.654;21.944;2023-04-28T12:31:56;101129.78;;;7.37;100.00
12676;BME280;63820;65.654;21.944;2023-04-28T12:34:41;101129.50;;;7.93;100.00
12676;BME280;63820;65.654;21.944;2023-04-28T12:37:26;101130.38;;;7.50;100.00
12676;BME280;63820;65.654;21.944;2023-04-28T12:40:10;101136.69;;;7.80;100.00
12676;BME280;63820;65.654;21.944;2023-04-28T12:42:55;101128.59;;;7.10;100.00
12676;BME280;63820;65.654;21.944;2023-04-28T12:45:40;101132.44;;;7.34;100.00
12676;BME280;63820;65.654;21.944;2023-04-28T12:48:24;101128.50;;;7.15;100.00
12676;BME280;63820;65.654;21.944;2023-04-28T12:51:10;101120.41;;;7.32;100.00
12676;BME280;63820;65.654;21.944;2023-04-28T12:53:54;101121.69;;;7.11;100.00
12676;BME280;63820;65.654;21.944;2023-04-28T12:56:38;101116.84;;;6.93;100.00
12676;BME280;63820;65.654;21.944;2023-04-28T12:59:22;101123.66;;;6.98;100.00
12676;BME280;63820;65.654;21.944;2023-04-28T13:02:06;101125.56;;;7.32;100.00
12676;BME280;63820;65.654;21.944;2023-04-28T13:04:51;101125.88;;;7.60;100.00
12676;BME280;63820;65.654;21.944;2023-04-28T13:07:36;101124.00;;;7.25;100.00
12676;BME280;63820;65.654;21.944;2023-04-28T13:10:20;101130.50;;;7.01;100.00
12676;BME280;63820;65.654;21.944;2023-04-28T13:13:06;101126.59;;;6.77;100.00
12676;BME280;63820;65.654;21.944;2023-04-28T13:15:50;101129.56;;;6.54;100.00
12676;BME280;63820;65.654;21.944;2023-04-28T13:18:35;101136.72;;;6.37;100.00
12676;BME280;63820;65.654;21.944;2023-04-28T13:21:19;101130.63;;;6.42;100.00
12676;BME280;63820;65.654;21.944;2023-04-28T13:24:03;101124.63;;;6.39;100.00
12676;BME280;63820;65.654;21.944;2023-04-28T13:26:48;101135.44;;;6.64;100.00
12676;BME280;63820;65.654;21.944;2023-04-28T13:29:32;101137.56;;;6.91;100.00
12676;BME280;63820;65.654;21.944;2023-04-28T13:32:16;101129.66;;;7.00;100.00
12676;BME280;63820;65.654;21.944;2023-04-28T13:35:00;101126.06;;;7.07;100.00
12676;BME280;63820;65.654;21.944;2023-04-28T13:37:44;101129.41;;;7.12;100.00
12676;BME280;63820;65.654;21.944;2023-04-28T13:40:29;101127.22;;;6.91;100.00
12676;BME280;63820;65.654;21.944;2023-04-28T13:43:13;101130.03;;;6.79;100.00
12676;BME280;63820;65.654;21.944;2023-04-28T13:45:57;101129.97;;;6.82;100.00
12676;BME280;63820;65.654;21.944;2023-04-28T13:48:42;101125.13;;;6.62;100.00
12676;BME280;63820;65.654;21.944;2023-04-28T13:51:27;101128.41;;;6.72;100.00
12676;BME280;63820;65.654;21.944;2023-04-28T13:54:11;101131.94;;;6.68;100.00
12676;BME280;63820;65.654;21.944;2023-04-28T13:56:55;101124.63;;;6.91;100.00
12676;BME280;63820;65.654;21.944;2023-04-28T13:59:39;101131.19;;;7.10;100.00
12676;BME280;63820;65.654;21.944;2023-04-28T14:02:24;101127.13;;;6.96;100.00
12676;BME280;63820;65.654;21.944;2023-04-28T14:05:10;101119.56;;;6.85;100.00
12676;BME280;63820;65.654;21.944;2023-04-28T14:07:55;101121.25;;;6.87;100.00
12676;BME280;63820;65.654;21.944;2023-04-28T14:10:39;101119.34;;;6.97;100.00
12676;BME280;63820;65.654;21.944;2023-04-28T14:13:23;101121.25;;;6.87;100.00
12676;BME280;63820;65.654;21.944;2023-04-28T14:16:07;101126.47;;;6.84;100.00
12676;BME280;63820;65.654;21.944;2023-04-28T14:18:52;101114.59;;;6.73;100.00
12676;BME280;63820;65.654;21.944;2023-04-28T14:21:36;101116.25;;;6.77;100.00
12676;BME280;63820;65.654;21.944;2023-04-28T14:24:20;101110.38;;;6.69;100.00